createdAt,value
2022-10-24T02:33:18.349Z,71.73
2022-10-24T02:35:48.011Z,71.95
2022-10-24T02:38:21.948Z,72.18
2022-10-24T02:41:32.407Z,71.78
2022-10-24T02:44:38.274Z,72.72
2022-10-24T02:47:06.757Z,73.35
2022-10-24T02:49:34.179Z,74.11
2022-10-24T02:52:01.827Z,74.73
2022-10-24T02:54:28.399Z,72.85
2022-10-24T02:57:17.199Z,74.52
2022-10-24T02:59:43.925Z,75.95
2022-10-24T03:02:12.834Z,74.99
2022-10-24T03:04:39.473Z,73.62
2022-10-24T03:07:07.432Z,72.88
2022-10-24T03:09:34.958Z,73.65
2022-10-24T03:12:01.732Z,75.19
2022-10-24T03:14:28.317Z,74.88
2022-10-24T03:16:54.953Z,74.43
2022-10-24T03:19:21.602Z,73.37
2022-10-24T03:21:48.175Z,78.34
2022-10-24T03:24:19.480Z,78.23
2022-10-24T03:27:12.402Z,75.16
2022-10-24T03:29:39.000Z,75.10
2022-10-24T03:32:06.483Z,73.93
2022-10-24T03:34:33.050Z,75.11
2022-10-24T03:36:59.759Z,76.04
2022-10-24T03:39:26.685Z,77.33
2022-10-24T03:41:53.280Z,76.23
2022-10-24T03:44:19.851Z,74.62
2022-10-24T03:47:10.716Z,73.36
2022-10-24T03:49:37.285Z,77.34
2022-10-24T03:52:06.186Z,76.26
2022-10-24T03:54:35.689Z,74.51
2022-10-24T03:57:02.822Z,73.42
2022-10-24T03:59:29.389Z,72.60
2022-10-24T04:02:44.027Z,73.17
2022-10-24T04:05:58.724Z,73.38
2022-10-24T04:08:51.732Z,72.62
2022-10-24T04:11:18.326Z,71.97
2022-10-24T04:13:44.905Z,71.93
2022-10-24T04:16:11.489Z,71.27
2022-10-24T04:18:38.304Z,71.24
2022-10-24T04:21:05.097Z,71.53
2022-10-24T04:23:35.718Z,73.11
2022-10-24T04:26:02.366Z,71.72
2022-10-24T04:28:30.170Z,73.81
2022-10-24T04:30:57.821Z,72.44
2022-10-24T04:33:25.054Z,72.19
2022-10-24T04:35:55.031Z,72.31
2022-10-24T04:38:21.909Z,73.39
2022-10-24T04:40:50.771Z,73.65
2022-10-24T04:43:17.418Z,75.83
2022-10-24T04:45:44.098Z,73.77
2022-10-24T04:48:10.742Z,74.17
2022-10-24T04:50:39.223Z,73.29
2022-10-24T04:53:05.880Z,73.65
2022-10-24T04:55:32.624Z,73.86
2022-10-24T04:57:59.422Z,75.47
2022-10-24T05:00:26.158Z,74.31
2022-10-24T05:02:54.194Z,75.45
2022-10-24T05:05:24.679Z,75.72
2022-10-24T05:07:51.248Z,76.54
2022-10-24T05:10:17.943Z,75.97
2022-10-24T05:12:44.766Z,74.39
2022-10-24T05:15:17.391Z,74.83
2022-10-24T05:17:44.327Z,75.18
2022-10-24T05:20:11.286Z,74.05
2022-10-24T05:22:37.914Z,73.66
2022-10-24T05:25:05.491Z,73.27
2022-10-24T05:27:32.146Z,72.29
2022-10-24T05:29:59.171Z,72.03
2022-10-24T05:32:26.593Z,72.21
2022-10-24T05:34:54.316Z,72.86
2022-10-24T05:37:35.859Z,72.16
2022-10-24T05:40:02.576Z,71.79
2022-10-24T05:42:29.226Z,71.05
2022-10-24T05:44:55.907Z,71.24
2022-10-24T05:47:29.346Z,71.10
2022-10-24T05:49:56.067Z,70.39
2022-10-24T05:52:22.807Z,70.85
2022-10-24T05:55:02.476Z,70.14
2022-10-24T05:57:47.738Z,69.90
2022-10-24T06:00:16.611Z,69.81
2022-10-24T06:02:44.045Z,71.43
2022-10-24T06:05:11.668Z,70.81
2022-10-24T06:07:38.404Z,71.06
2022-10-24T06:10:07.100Z,69.86
2022-10-24T06:12:36.117Z,71.11
2022-10-24T06:15:07.147Z,70.48
2022-10-24T06:17:36.306Z,71.33
2022-10-24T06:20:03.181Z,70.97
2022-10-24T19:51:19.249Z,69.47
2022-10-24T19:53:46.919Z,69.47
2022-10-24T19:56:18.204Z,70.71
2022-10-24T19:58:46.874Z,70.36
2022-10-24T20:01:19.518Z,70.44
2022-10-24T20:03:47.972Z,70.41
2022-10-24T20:06:15.905Z,70.11
2022-10-24T20:08:42.651Z,70.48
2022-10-24T20:11:09.726Z,70.07
2022-10-24T20:13:36.545Z,69.76
2022-10-24T20:16:08.188Z,69.58
2022-10-24T20:18:36.281Z,69.88
2022-10-24T20:21:05.124Z,71.40
2022-10-24T20:23:32.297Z,70.88
2022-10-24T20:26:05.831Z,70.64
2022-10-24T20:28:37.644Z,70.15
2022-10-24T20:31:05.550Z,69.68
2022-10-24T20:33:32.412Z,69.73
2022-10-24T20:36:00.338Z,69.79
2022-10-24T20:38:28.267Z,69.48
2022-10-24T20:40:54.912Z,69.29
2022-10-24T20:43:21.479Z,69.05
2022-10-24T20:45:48.373Z,69.26
2022-10-24T20:48:14.965Z,69.02
2022-10-24T20:50:41.575Z,69.97
2022-10-24T20:53:08.136Z,69.65
2022-10-24T20:55:45.461Z,69.87
2022-10-24T20:58:31.774Z,69.62
2022-10-24T21:00:58.411Z,69.96
2022-10-24T22:08:11.841Z,69.62
2022-10-24T22:10:38.585Z,71.47
2022-10-24T22:13:05.102Z,70.85
2022-10-24T22:15:31.767Z,70.62
2022-10-24T22:17:58.329Z,71.04
2022-10-24T22:20:24.857Z,70.96
2022-10-24T22:22:52.198Z,71.20
2022-10-24T22:25:18.768Z,70.45
2022-10-24T22:27:45.610Z,70.10
2022-10-24T22:30:12.733Z,69.80
2022-10-24T22:32:41.965Z,69.44
2022-10-24T22:35:10.034Z,69.39
